Airfield :
LOGIN :

Register | Disclaimer

   EN    FR    IT 

 










Legend :    VFR   Marginal VFR   IFR   Intensive IFR   Very Intensive IFR
Visi :
Ceiling :
>= 8 km
>= 3000ft
5 to 8 km
1000 to 3000 ft
1500m to 5 km
500 to 1000 ft
800 to 1500m
200 to 500 ft
< 800m
< 200 ft
Symbols :   Thunderstorms  Fog  Heavy snow  Heavy precipitations  Wind > 20 kt
SIGMETs :     Misc.  Thunderstorms  Icing  Turbulence  Mountain Waves  Volcanic Ashes






- Airport Elevation : 247 ft
- IATA code : BLL


EKBI - Billund

CURRENT METAR :
  • 281550Z AUTO 30009KT 260V340 9999 NCD 16/04 Q1032

EXPIRED METARs :
  • 281520Z AUTO 29008KT 260V350 9999 NCD 16/05 Q1032
  • 281450Z AUTO 30009KT 260V340 9999 NCD 16/06 Q1032
  • 281420Z AUTO 30009KT 270V330 9999 NCD 16/06 Q1032
  • 281350Z AUTO 29009KT 240V330 9999 NCD 16/05 Q1032
  • 281320Z AUTO 29010KT 250V320 9999 NCD 16/05 Q1032

TAF TAF EKBI
Valid from the 28 at 12:00 until the 29 at 12:00 UTC


281103Z 2812/2912 33012KT 9999 FEW040
BECMG 2821/2823 VRB02KT
PROB40 2823/2905 2500 BR



MET'MAP, your aeronautical weather chart ! - Copyright ORBIFLY December 2007 - Disclaimer

ORBIFLY MET'MAP TEAM :

Programming & Development : Alexandra Zaïnal
Concept & original design : Baudouin d'Aumeries
Assistance for programming : Marc-Olivier Méhu
Technical & hardware support : Manuel Goepfert

Contact : metmap@orbifly.com




SOURCES & CREDITS :

   NOAA